sensor_id;sensor_type;location;lat;lon;timestamp;P1;durP1;ratioP1;P2;durP2;ratioP2
63581;SDS011;49727;51.078;17.066;2023-10-13T00:01:13;13.20;;;8.30;;
63581;SDS011;49727;51.078;17.066;2023-10-13T00:16:13;21.15;;;9.95;;
63581;SDS011;49727;51.078;17.066;2023-10-13T00:31:17;18.50;;;9.73;;
63581;SDS011;49727;51.078;17.066;2023-10-13T00:46:17;18.98;;;9.32;;
63581;SDS011;49727;51.078;17.066;2023-10-13T01:01:19;19.33;;;11.07;;
63581;SDS011;49727;51.078;17.066;2023-10-13T01:16:29;13.53;;;8.57;;
63581;SDS011;49727;51.078;17.066;2023-10-13T01:31:30;15.90;;;8.20;;
63581;SDS011;49727;51.078;17.066;2023-10-13T01:46:40;20.57;;;10.27;;
63581;SDS011;49727;51.078;17.066;2023-10-13T02:01:43;17.23;;;9.20;;
63581;SDS011;49727;51.078;17.066;2023-10-13T02:16:44;14.77;;;9.32;;
63581;SDS011;49727;51.078;17.066;2023-10-13T02:31:47;16.43;;;9.53;;
63581;SDS011;49727;51.078;17.066;2023-10-13T02:46:54;14.77;;;7.97;;
63581;SDS011;49727;51.078;17.066;2023-10-13T03:01:57;14.90;;;8.77;;
63581;SDS011;49727;51.078;17.066;2023-10-13T03:17:01;15.88;;;8.15;;
63581;SDS011;49727;51.078;17.066;2023-10-13T03:32:05;19.73;;;9.03;;
63581;SDS011;49727;51.078;17.066;2023-10-13T03:47:11;16.70;;;10.43;;
63581;SDS011;49727;51.078;17.066;2023-10-13T04:02:26;14.77;;;7.83;;
63581;SDS011;49727;51.078;17.066;2023-10-13T04:17:27;16.90;;;8.77;;
63581;SDS011;49727;51.078;17.066;2023-10-13T04:32:29;21.30;;;12.27;;
63581;SDS011;49727;51.078;17.066;2023-10-13T04:47:29;23.92;;;15.23;;
63581;SDS011;49727;51.078;17.066;2023-10-13T05:02:42;19.37;;;11.93;;
63581;SDS011;49727;51.078;17.066;2023-10-13T05:18:15;17.77;;;10.67;;
63581;SDS011;49727;51.078;17.066;2023-10-13T05:33:33;15.60;;;9.50;;
63581;SDS011;49727;51.078;17.066;2023-10-13T05:48:53;15.93;;;10.00;;
63581;SDS011;49727;51.078;17.066;2023-10-13T06:04:00;16.47;;;11.13;;
63581;SDS011;49727;51.078;17.066;2023-10-13T06:19:18;20.83;;;10.50;;
63581;SDS011;49727;51.078;17.066;2023-10-13T06:34:37;17.90;;;10.27;;
63581;SDS011;49727;51.078;17.066;2023-10-13T06:49:44;14.03;;;9.90;;
63581;SDS011;49727;51.078;17.066;2023-10-13T07:04:45;17.53;;;10.23;;
63581;SDS011;49727;51.078;17.066;2023-10-13T07:19:46;13.20;;;8.67;;
63581;SDS011;49727;51.078;17.066;2023-10-13T07:34:53;16.20;;;10.97;;
63581;SDS011;49727;51.078;17.066;2023-10-13T07:49:57;15.57;;;9.63;;
63581;SDS011;49727;51.078;17.066;2023-10-13T08:04:57;12.23;;;9.52;;
63581;SDS011;49727;51.078;17.066;2023-10-13T08:19:57;12.40;;;8.70;;
63581;SDS011;49727;51.078;17.066;2023-10-13T08:34:59;11.37;;;7.80;;
63581;SDS011;49727;51.078;17.066;2023-10-13T08:50:21;8.77;;;6.07;;
63581;SDS011;49727;51.078;17.066;2023-10-13T09:05:47;8.40;;;6.13;;
63581;SDS011;49727;51.078;17.066;2023-10-13T09:21:06;9.27;;;5.03;;
63581;SDS011;49727;51.078;17.066;2023-10-13T09:36:25;6.90;;;4.17;;
63581;SDS011;49727;51.078;17.066;2023-10-13T09:51:26;5.80;;;4.00;;
63581;SDS011;49727;51.078;17.066;2023-10-13T10:06:26;6.97;;;4.20;;
63581;SDS011;49727;51.078;17.066;2023-10-13T10:21:36;4.73;;;3.83;;
63581;SDS011;49727;51.078;17.066;2023-10-13T10:36:37;4.73;;;3.00;;
63581;SDS011;49727;51.078;17.066;2023-10-13T10:51:44;3.47;;;2.30;;
63581;SDS011;49727;51.078;17.066;2023-10-13T11:06:54;4.27;;;2.70;;
63581;SDS011;49727;51.078;17.066;2023-10-13T11:21:55;6.20;;;3.40;;
63581;SDS011;49727;51.078;17.066;2023-10-13T11:36:56;7.90;;;3.08;;
63581;SDS011;49727;51.078;17.066;2023-10-13T11:51:58;6.33;;;3.50;;
63581;SDS011;49727;51.078;17.066;2023-10-13T12:07:10;4.27;;;2.40;;
63581;SDS011;49727;51.078;17.066;2023-10-13T12:22:20;4.57;;;1.97;;
63581;SDS011;49727;51.078;17.066;2023-10-13T12:37:35;4.63;;;2.10;;
63581;SDS011;49727;51.078;17.066;2023-10-13T12:52:36;6.32;;;3.60;;
63581;SDS011;49727;51.078;17.066;2023-10-13T13:07:36;6.18;;;2.92;;
63581;SDS011;49727;51.078;17.066;2023-10-13T13:22:44;4.20;;;2.30;;
63581;SDS011;49727;51.078;17.066;2023-10-13T13:37:45;5.63;;;2.20;;
63581;SDS011;49727;51.078;17.066;2023-10-13T13:52:45;2.97;;;2.17;;
63581;SDS011;49727;51.078;17.066;2023-10-13T14:07:46;6.53;;;2.40;;
63581;SDS011;49727;51.078;17.066;2023-10-13T14:22:49;6.53;;;2.50;;
63581;SDS011;49727;51.078;17.066;2023-10-13T14:37:52;6.47;;;2.33;;
63581;SDS011;49727;51.078;17.066;2023-10-13T14:52:53;8.10;;;2.70;;
63581;SDS011;49727;51.078;17.066;2023-10-13T15:07:53;8.63;;;3.20;;
63581;SDS011;49727;51.078;17.066;2023-10-13T15:22:55;10.33;;;4.90;;
63581;SDS011;49727;51.078;17.066;2023-10-13T15:37:59;8.80;;;4.63;;
63581;SDS011;49727;51.078;17.066;2023-10-13T15:53:01;9.80;;;4.27;;
63581;SDS011;49727;51.078;17.066;2023-10-13T16:08:02;6.30;;;4.15;;
63581;SDS011;49727;51.078;17.066;2023-10-13T16:23:03;10.80;;;5.43;;
63581;SDS011;49727;51.078;17.066;2023-10-13T16:38:05;10.37;;;5.97;;
63581;SDS011;49727;51.078;17.066;2023-10-13T16:53:08;25.20;;;12.97;;
63581;SDS011;49727;51.078;17.066;2023-10-13T17:08:10;15.10;;;9.17;;
63581;SDS011;49727;51.078;17.066;2023-10-13T17:23:10;16.77;;;9.35;;
63581;SDS011;49727;51.078;17.066;2023-10-13T17:38:11;14.60;;;6.38;;
63581;SDS011;49727;51.078;17.066;2023-10-13T17:53:11;9.70;;;5.00;;
63581;SDS011;49727;51.078;17.066;2023-10-13T18:08:12;15.27;;;5.32;;
63581;SDS011;49727;51.078;17.066;2023-10-13T18:23:12;17.65;;;5.60;;
63581;SDS011;49727;51.078;17.066;2023-10-13T18:38:14;12.20;;;4.77;;
63581;SDS011;49727;51.078;17.066;2023-10-13T18:53:14;9.88;;;4.28;;
63581;SDS011;49727;51.078;17.066;2023-10-13T19:08:14;8.32;;;3.90;;
63581;SDS011;49727;51.078;17.066;2023-10-13T19:23:17;8.97;;;4.13;;
63581;SDS011;49727;51.078;17.066;2023-10-13T19:38:19;14.40;;;4.70;;
63581;SDS011;49727;51.078;17.066;2023-10-13T19:53:20;12.25;;;4.55;;
63581;SDS011;49727;51.078;17.066;2023-10-13T20:08:21;11.00;;;3.75;;
63581;SDS011;49727;51.078;17.066;2023-10-13T20:23:23;9.10;;;3.30;;
63581;SDS011;49727;51.078;17.066;2023-10-13T20:38:25;9.60;;;3.40;;
63581;SDS011;49727;51.078;17.066;2023-10-13T20:53:26;8.68;;;3.47;;
63581;SDS011;49727;51.078;17.066;2023-10-13T21:08:26;8.88;;;3.75;;
63581;SDS011;49727;51.078;17.066;2023-10-13T21:23:27;8.52;;;4.03;;
63581;SDS011;49727;51.078;17.066;2023-10-13T21:38:27;6.13;;;2.75;;
63581;SDS011;49727;51.078;17.066;2023-10-13T21:53:28;10.23;;;3.45;;
63581;SDS011;49727;51.078;17.066;2023-10-13T22:08:28;8.30;;;2.83;;
63581;SDS011;49727;51.078;17.066;2023-10-13T22:23:29;7.83;;;2.77;;
63581;SDS011;49727;51.078;17.066;2023-10-13T22:38:29;8.57;;;3.70;;
63581;SDS011;49727;51.078;17.066;2023-10-13T22:53:30;7.10;;;2.65;;
63581;SDS011;49727;51.078;17.066;2023-10-13T23:08:31;11.10;;;3.25;;
63581;SDS011;49727;51.078;17.066;2023-10-13T23:23:36;8.03;;;2.57;;
63581;SDS011;49727;51.078;17.066;2023-10-13T23:38:37;7.47;;;3.10;;
63581;SDS011;49727;51.078;17.066;2023-10-13T23:53:38;8.97;;;3.00;;
